sensor_id;sensor_type;location;lat;lon;timestamp;P1;durP1;ratioP1;P2;durP2;ratioP2
38909;SDS011;24676;51.360;12.354;2023-06-10T00:01:01;4.07;;;1.40;;
38909;SDS011;24676;51.360;12.354;2023-06-10T00:03:45;4.90;;;1.75;;
38909;SDS011;24676;51.360;12.354;2023-06-10T00:06:29;5.22;;;2.10;;
38909;SDS011;24676;51.360;12.354;2023-06-10T00:09:19;10.13;;;1.70;;
38909;SDS011;24676;51.360;12.354;2023-06-10T00:12:04;6.70;;;2.47;;
38909;SDS011;24676;51.360;12.354;2023-06-10T00:14:50;3.45;;;1.92;;
38909;SDS011;24676;51.360;12.354;2023-06-10T00:17:37;5.43;;;1.50;;
38909;SDS011;24676;51.360;12.354;2023-06-10T00:20:22;1.98;;;1.63;;
38909;SDS011;24676;51.360;12.354;2023-06-10T00:23:07;2.58;;;1.73;;
38909;SDS011;24676;51.360;12.354;2023-06-10T00:25:52;8.27;;;2.55;;
38909;SDS011;24676;51.360;12.354;2023-06-10T00:28:36;2.38;;;1.02;;
38909;SDS011;24676;51.360;12.354;2023-06-10T00:31:20;2.90;;;1.58;;
38909;SDS011;24676;51.360;12.354;2023-06-10T00:34:05;3.65;;;1.67;;
38909;SDS011;24676;51.360;12.354;2023-06-10T00:36:52;3.90;;;1.38;;
38909;SDS011;24676;51.360;12.354;2023-06-10T00:39:36;4.00;;;1.77;;
38909;SDS011;24676;51.360;12.354;2023-06-10T00:42:21;5.30;;;1.88;;
38909;SDS011;24676;51.360;12.354;2023-06-10T00:45:07;6.35;;;1.88;;
38909;SDS011;24676;51.360;12.354;2023-06-10T00:47:52;1.20;;;0.95;;
38909;SDS011;24676;51.360;12.354;2023-06-10T00:50:36;3.97;;;2.20;;
38909;SDS011;24676;51.360;12.354;2023-06-10T00:53:22;2.60;;;2.22;;
38909;SDS011;24676;51.360;12.354;2023-06-10T00:56:07;2.80;;;1.73;;
38909;SDS011;24676;51.360;12.354;2023-06-10T00:58:51;1.85;;;1.70;;
38909;SDS011;24676;51.360;12.354;2023-06-10T01:01:35;2.92;;;2.28;;
38909;SDS011;24676;51.360;12.354;2023-06-10T01:04:21;2.08;;;1.83;;
38909;SDS011;24676;51.360;12.354;2023-06-10T01:07:09;5.88;;;2.47;;
38909;SDS011;24676;51.360;12.354;2023-06-10T01:12:59;4.03;;;1.83;;
38909;SDS011;24676;51.360;12.354;2023-06-10T01:15:45;5.25;;;2.13;;
38909;SDS011;24676;51.360;12.354;2023-06-10T01:18:30;3.05;;;2.22;;
38909;SDS011;24676;51.360;12.354;2023-06-10T01:21:24;4.03;;;3.10;;
38909;SDS011;24676;51.360;12.354;2023-06-10T01:24:08;5.43;;;2.42;;
38909;SDS011;24676;51.360;12.354;2023-06-10T01:26:54;6.25;;;2.85;;
38909;SDS011;24676;51.360;12.354;2023-06-10T01:29:43;4.18;;;2.67;;
38909;SDS011;24676;51.360;12.354;2023-06-10T01:32:34;14.40;;;3.33;;
38909;SDS011;24676;51.360;12.354;2023-06-10T01:35:24;5.88;;;2.95;;
38909;SDS011;24676;51.360;12.354;2023-06-10T01:38:10;6.95;;;3.20;;
38909;SDS011;24676;51.360;12.354;2023-06-10T01:40:56;5.18;;;3.33;;
38909;SDS011;24676;51.360;12.354;2023-06-10T01:43:42;4.63;;;3.28;;
38909;SDS011;24676;51.360;12.354;2023-06-10T01:46:27;3.15;;;2.85;;
38909;SDS011;24676;51.360;12.354;2023-06-10T01:49:11;6.70;;;3.50;;
38909;SDS011;24676;51.360;12.354;2023-06-10T01:51:55;5.57;;;3.33;;
38909;SDS011;24676;51.360;12.354;2023-06-10T01:54:40;10.60;;;3.05;;
38909;SDS011;24676;51.360;12.354;2023-06-10T01:57:24;4.63;;;2.80;;
38909;SDS011;24676;51.360;12.354;2023-06-10T02:00:08;5.18;;;3.38;;
38909;SDS011;24676;51.360;12.354;2023-06-10T02:02:53;4.13;;;2.80;;
38909;SDS011;24676;51.360;12.354;2023-06-10T02:05:38;9.13;;;3.03;;
38909;SDS011;24676;51.360;12.354;2023-06-10T02:08:23;2.80;;;2.58;;
38909;SDS011;24676;51.360;12.354;2023-06-10T02:11:07;3.45;;;3.15;;
38909;SDS011;24676;51.360;12.354;2023-06-10T02:13:52;6.00;;;3.70;;
38909;SDS011;24676;51.360;12.354;2023-06-10T02:16:36;6.25;;;2.50;;
38909;SDS011;24676;51.360;12.354;2023-06-10T02:19:20;5.15;;;2.95;;
38909;SDS011;24676;51.360;12.354;2023-06-10T02:22:05;2.80;;;2.47;;
38909;SDS011;24676;51.360;12.354;2023-06-10T02:24:49;3.55;;;2.78;;
38909;SDS011;24676;51.360;12.354;2023-06-10T02:27:33;5.35;;;2.80;;
38909;SDS011;24676;51.360;12.354;2023-06-10T02:30:17;3.55;;;2.55;;
38909;SDS011;24676;51.360;12.354;2023-06-10T02:33:02;5.20;;;3.05;;
38909;SDS011;24676;51.360;12.354;2023-06-10T02:35:46;4.75;;;2.92;;
38909;SDS011;24676;51.360;12.354;2023-06-10T02:38:31;4.65;;;2.30;;
38909;SDS011;24676;51.360;12.354;2023-06-10T02:41:14;4.43;;;3.35;;
38909;SDS011;24676;51.360;12.354;2023-06-10T02:43:59;5.63;;;3.38;;
38909;SDS011;24676;51.360;12.354;2023-06-10T02:46:43;3.78;;;2.67;;
38909;SDS011;24676;51.360;12.354;2023-06-10T02:49:27;9.55;;;2.78;;
38909;SDS011;24676;51.360;12.354;2023-06-10T02:52:11;3.63;;;3.25;;
38909;SDS011;24676;51.360;12.354;2023-06-10T02:54:56;4.28;;;2.28;;
38909;SDS011;24676;51.360;12.354;2023-06-10T02:57:40;7.90;;;3.67;;
38909;SDS011;24676;51.360;12.354;2023-06-10T03:00:24;6.35;;;2.50;;
38909;SDS011;24676;51.360;12.354;2023-06-10T03:03:08;3.42;;;2.47;;
38909;SDS011;24676;51.360;12.354;2023-06-10T03:05:54;3.50;;;2.17;;
38909;SDS011;24676;51.360;12.354;2023-06-10T03:08:39;4.07;;;2.38;;
38909;SDS011;24676;51.360;12.354;2023-06-10T03:11:24;2.95;;;2.33;;
38909;SDS011;24676;51.360;12.354;2023-06-10T03:14:09;8.50;;;4.03;;
38909;SDS011;24676;51.360;12.354;2023-06-10T03:16:53;6.25;;;2.13;;
38909;SDS011;24676;51.360;12.354;2023-06-10T03:19:38;3.70;;;2.58;;
38909;SDS011;24676;51.360;12.354;2023-06-10T03:22:23;3.25;;;2.13;;
38909;SDS011;24676;51.360;12.354;2023-06-10T03:25:07;11.60;;;2.80;;
38909;SDS011;24676;51.360;12.354;2023-06-10T03:27:57;3.45;;;2.35;;
38909;SDS011;24676;51.360;12.354;2023-06-10T03:30:42;4.47;;;2.47;;
38909;SDS011;24676;51.360;12.354;2023-06-10T03:33:26;3.67;;;2.67;;
38909;SDS011;24676;51.360;12.354;2023-06-10T03:36:10;3.40;;;2.33;;
38909;SDS011;24676;51.360;12.354;2023-06-10T03:38:54;5.50;;;3.13;;
38909;SDS011;24676;51.360;12.354;2023-06-10T03:41:40;3.63;;;2.85;;
38909;SDS011;24676;51.360;12.354;2023-06-10T03:44:24;4.40;;;3.00;;
38909;SDS011;24676;51.360;12.354;2023-06-10T03:47:11;6.18;;;2.90;;
38909;SDS011;24676;51.360;12.354;2023-06-10T03:49:56;2.55;;;2.00;;
38909;SDS011;24676;51.360;12.354;2023-06-10T03:52:40;4.13;;;2.35;;
38909;SDS011;24676;51.360;12.354;2023-06-10T03:55:25;2.83;;;2.38;;
38909;SDS011;24676;51.360;12.354;2023-06-10T03:58:09;3.97;;;2.50;;
38909;SDS011;24676;51.360;12.354;2023-06-10T04:00:56;3.70;;;2.55;;
38909;SDS011;24676;51.360;12.354;2023-06-10T04:03:40;3.92;;;2.35;;
38909;SDS011;24676;51.360;12.354;2023-06-10T04:06:25;3.30;;;2.15;;
38909;SDS011;24676;51.360;12.354;2023-06-10T04:09:09;2.72;;;2.00;;
38909;SDS011;24676;51.360;12.354;2023-06-10T04:11:54;12.23;;;2.92;;
38909;SDS011;24676;51.360;12.354;2023-06-10T04:14:38;2.97;;;2.67;;
38909;SDS011;24676;51.360;12.354;2023-06-10T04:17:22;3.20;;;2.58;;
38909;SDS011;24676;51.360;12.354;2023-06-10T04:20:07;4.40;;;2.35;;
38909;SDS011;24676;51.360;12.354;2023-06-10T04:22:52;4.05;;;2.70;;
38909;SDS011;24676;51.360;12.354;2023-06-10T04:25:36;4.50;;;1.77;;
38909;SDS011;24676;51.360;12.354;2023-06-10T04:28:20;2.72;;;2.45;;
38909;SDS011;24676;51.360;12.354;2023-06-10T04:31:04;2.33;;;1.92;;
38909;SDS011;24676;51.360;12.354;2023-06-10T04:33:48;1.77;;;1.67;;
38909;SDS011;24676;51.360;12.354;2023-06-10T04:36:32;3.25;;;2.13;;
38909;SDS011;24676;51.360;12.354;2023-06-10T04:39:16;3.63;;;1.90;;
38909;SDS011;24676;51.360;12.354;2023-06-10T04:42:01;5.10;;;2.17;;
38909;SDS011;24676;51.360;12.354;2023-06-10T04:44:45;5.15;;;2.30;;
38909;SDS011;24676;51.360;12.354;2023-06-10T04:47:30;1.88;;;1.73;;
38909;SDS011;24676;51.360;12.354;2023-06-10T04:50:16;2.17;;;1.98;;
38909;SDS011;24676;51.360;12.354;2023-06-10T04:53:00;3.53;;;2.13;;
38909;SDS011;24676;51.360;12.354;2023-06-10T04:55:44;3.13;;;1.75;;
38909;SDS011;24676;51.360;12.354;2023-06-10T04:58:29;3.88;;;1.33;;
38909;SDS011;24676;51.360;12.354;2023-06-10T05:01:13;2.30;;;1.42;;
38909;SDS011;24676;51.360;12.354;2023-06-10T05:03:58;3.28;;;1.77;;
38909;SDS011;24676;51.360;12.354;2023-06-10T05:06:42;3.25;;;1.77;;
38909;SDS011;24676;51.360;12.354;2023-06-10T05:09:26;4.35;;;2.00;;
38909;SDS011;24676;51.360;12.354;2023-06-10T05:12:11;6.10;;;2.25;;
38909;SDS011;24676;51.360;12.354;2023-06-10T05:14:56;4.78;;;2.13;;
38909;SDS011;24676;51.360;12.354;2023-06-10T05:17:40;6.13;;;2.65;;
38909;SDS011;24676;51.360;12.354;2023-06-10T05:20:24;3.63;;;2.47;;
38909;SDS011;24676;51.360;12.354;2023-06-10T05:23:09;3.72;;;1.98;;
38909;SDS011;24676;51.360;12.354;2023-06-10T05:25:54;2.70;;;1.90;;
38909;SDS011;24676;51.360;12.354;2023-06-10T05:28:38;2.15;;;1.60;;
38909;SDS011;24676;51.360;12.354;2023-06-10T05:31:22;3.78;;;1.92;;
38909;SDS011;24676;51.360;12.354;2023-06-10T05:34:07;3.67;;;2.22;;
38909;SDS011;24676;51.360;12.354;2023-06-10T05:36:51;6.10;;;2.90;;
38909;SDS011;24676;51.360;12.354;2023-06-10T05:39:35;3.60;;;2.58;;
38909;SDS011;24676;51.360;12.354;2023-06-10T05:42:23;6.10;;;1.90;;
38909;SDS011;24676;51.360;12.354;2023-06-10T05:45:07;4.45;;;2.28;;
38909;SDS011;24676;51.360;12.354;2023-06-10T05:47:52;5.82;;;2.92;;
38909;SDS011;24676;51.360;12.354;2023-06-10T05:50:36;3.20;;;2.20;;
38909;SDS011;24676;51.360;12.354;2023-06-10T05:53:22;4.53;;;2.28;;
38909;SDS011;24676;51.360;12.354;2023-06-10T05:56:06;2.53;;;2.00;;
38909;SDS011;24676;51.360;12.354;2023-06-10T05:58:51;2.65;;;1.70;;
38909;SDS011;24676;51.360;12.354;2023-06-10T06:01:35;3.83;;;1.80;;
38909;SDS011;24676;51.360;12.354;2023-06-10T06:04:20;3.92;;;1.90;;
38909;SDS011;24676;51.360;12.354;2023-06-10T06:07:04;3.25;;;2.03;;
38909;SDS011;24676;51.360;12.354;2023-06-10T06:09:50;2.90;;;2.22;;
38909;SDS011;24676;51.360;12.354;2023-06-10T06:12:34;6.80;;;3.00;;
38909;SDS011;24676;51.360;12.354;2023-06-10T06:15:18;2.20;;;2.03;;
38909;SDS011;24676;51.360;12.354;2023-06-10T06:18:02;4.55;;;2.42;;
38909;SDS011;24676;51.360;12.354;2023-06-10T06:20:46;9.52;;;3.47;;
38909;SDS011;24676;51.360;12.354;2023-06-10T06:23:30;5.38;;;2.40;;
38909;SDS011;24676;51.360;12.354;2023-06-10T06:26:15;3.65;;;3.03;;
38909;SDS011;24676;51.360;12.354;2023-06-10T06:28:59;3.92;;;2.17;;
38909;SDS011;24676;51.360;12.354;2023-06-10T06:31:43;3.10;;;2.42;;
38909;SDS011;24676;51.360;12.354;2023-06-10T06:34:27;3.03;;;2.05;;
38909;SDS011;24676;51.360;12.354;2023-06-10T06:37:12;5.45;;;4.35;;
38909;SDS011;24676;51.360;12.354;2023-06-10T06:39:57;6.15;;;2.10;;
38909;SDS011;24676;51.360;12.354;2023-06-10T06:42:41;3.25;;;2.42;;
38909;SDS011;24676;51.360;12.354;2023-06-10T06:45:25;6.88;;;2.50;;
38909;SDS011;24676;51.360;12.354;2023-06-10T06:48:10;7.25;;;3.00;;
38909;SDS011;24676;51.360;12.354;2023-06-10T06:50:55;6.25;;;1.75;;
38909;SDS011;24676;51.360;12.354;2023-06-10T06:53:40;5.03;;;2.72;;
38909;SDS011;24676;51.360;12.354;2023-06-10T06:56:27;3.83;;;1.70;;
38909;SDS011;24676;51.360;12.354;2023-06-10T06:59:11;3.92;;;2.22;;
38909;SDS011;24676;51.360;12.354;2023-06-10T07:01:57;2.10;;;1.95;;
38909;SDS011;24676;51.360;12.354;2023-06-10T07:04:41;4.80;;;2.35;;
38909;SDS011;24676;51.360;12.354;2023-06-10T07:07:25;5.60;;;3.13;;
38909;SDS011;24676;51.360;12.354;2023-06-10T07:10:11;3.42;;;2.55;;
38909;SDS011;24676;51.360;12.354;2023-06-10T07:12:55;4.30;;;2.83;;
38909;SDS011;24676;51.360;12.354;2023-06-10T07:15:39;4.80;;;2.33;;
38909;SDS011;24676;51.360;12.354;2023-06-10T07:18:24;4.07;;;2.20;;
38909;SDS011;24676;51.360;12.354;2023-06-10T07:21:08;3.75;;;2.20;;
38909;SDS011;24676;51.360;12.354;2023-06-10T07:23:52;5.50;;;2.40;;
38909;SDS011;24676;51.360;12.354;2023-06-10T07:26:37;4.88;;;3.08;;
38909;SDS011;24676;51.360;12.354;2023-06-10T07:29:21;2.97;;;2.40;;
38909;SDS011;24676;51.360;12.354;2023-06-10T07:32:06;4.57;;;2.72;;
38909;SDS011;24676;51.360;12.354;2023-06-10T07:34:50;3.60;;;2.67;;
38909;SDS011;24676;51.360;12.354;2023-06-10T07:37:34;7.13;;;3.42;;
38909;SDS011;24676;51.360;12.354;2023-06-10T07:40:18;5.32;;;3.25;;
38909;SDS011;24676;51.360;12.354;2023-06-10T07:43:02;3.28;;;2.97;;
38909;SDS011;24676;51.360;12.354;2023-06-10T07:45:47;4.18;;;2.75;;
38909;SDS011;24676;51.360;12.354;2023-06-10T07:48:31;5.88;;;2.97;;
38909;SDS011;24676;51.360;12.354;2023-06-10T07:51:16;3.63;;;2.75;;
38909;SDS011;24676;51.360;12.354;2023-06-10T07:54:00;5.45;;;3.35;;
38909;SDS011;24676;51.360;12.354;2023-06-10T07:56:45;3.65;;;2.85;;
38909;SDS011;24676;51.360;12.354;2023-06-10T07:59:29;3.60;;;2.78;;
38909;SDS011;24676;51.360;12.354;2023-06-10T08:02:13;6.63;;;3.00;;
38909;SDS011;24676;51.360;12.354;2023-06-10T08:04:57;5.28;;;2.75;;
38909;SDS011;24676;51.360;12.354;2023-06-10T08:07:41;3.60;;;2.72;;
38909;SDS011;24676;51.360;12.354;2023-06-10T08:10:26;3.58;;;2.80;;
38909;SDS011;24676;51.360;12.354;2023-06-10T08:13:09;3.72;;;2.40;;
38909;SDS011;24676;51.360;12.354;2023-06-10T08:15:54;5.05;;;3.20;;
38909;SDS011;24676;51.360;12.354;2023-06-10T08:18:38;2.67;;;2.45;;
38909;SDS011;24676;51.360;12.354;2023-06-10T08:21:23;5.60;;;2.63;;
38909;SDS011;24676;51.360;12.354;2023-06-10T08:24:08;6.88;;;3.55;;
38909;SDS011;24676;51.360;12.354;2023-06-10T08:26:53;9.02;;;3.85;;
38909;SDS011;24676;51.360;12.354;2023-06-10T08:29:39;8.88;;;3.10;;
38909;SDS011;24676;51.360;12.354;2023-06-10T08:32:23;3.80;;;2.67;;
38909;SDS011;24676;51.360;12.354;2023-06-10T08:35:08;3.65;;;2.95;;
38909;SDS011;24676;51.360;12.354;2023-06-10T08:37:52;5.80;;;4.53;;
38909;SDS011;24676;51.360;12.354;2023-06-10T08:40:37;6.72;;;3.53;;
38909;SDS011;24676;51.360;12.354;2023-06-10T08:46:28;5.63;;;3.17;;
38909;SDS011;24676;51.360;12.354;2023-06-10T08:49:18;6.82;;;4.15;;
38909;SDS011;24676;51.360;12.354;2023-06-10T08:52:04;5.95;;;3.65;;
38909;SDS011;24676;51.360;12.354;2023-06-10T08:54:57;5.93;;;3.40;;
38909;SDS011;24676;51.360;12.354;2023-06-10T08:57:43;4.07;;;2.75;;
38909;SDS011;24676;51.360;12.354;2023-06-10T09:00:29;5.47;;;3.60;;
38909;SDS011;24676;51.360;12.354;2023-06-10T09:03:14;7.22;;;3.55;;
38909;SDS011;24676;51.360;12.354;2023-06-10T09:05:59;3.88;;;3.38;;
38909;SDS011;24676;51.360;12.354;2023-06-10T09:08:44;3.75;;;3.33;;
38909;SDS011;24676;51.360;12.354;2023-06-10T09:11:28;4.13;;;2.88;;
38909;SDS011;24676;51.360;12.354;2023-06-10T09:14:13;3.20;;;2.95;;
38909;SDS011;24676;51.360;12.354;2023-06-10T09:16:57;9.52;;;3.70;;
38909;SDS011;24676;51.360;12.354;2023-06-10T09:19:42;6.07;;;4.30;;
38909;SDS011;24676;51.360;12.354;2023-06-10T09:22:28;4.35;;;3.40;;
38909;SDS011;24676;51.360;12.354;2023-06-10T09:25:13;4.65;;;2.90;;
38909;SDS011;24676;51.360;12.354;2023-06-10T09:27:57;3.17;;;2.55;;
38909;SDS011;24676;51.360;12.354;2023-06-10T09:30:42;7.18;;;4.10;;
38909;SDS011;24676;51.360;12.354;2023-06-10T09:33:29;5.68;;;3.10;;
38909;SDS011;24676;51.360;12.354;2023-06-10T09:36:23;4.18;;;3.25;;
38909;SDS011;24676;51.360;12.354;2023-06-10T09:39:17;3.25;;;2.95;;
38909;SDS011;24676;51.360;12.354;2023-06-10T09:42:02;5.97;;;3.33;;
38909;SDS011;24676;51.360;12.354;2023-06-10T09:45:00;4.32;;;3.60;;
38909;SDS011;24676;51.360;12.354;2023-06-10T09:47:46;6.28;;;5.05;;
38909;SDS011;24676;51.360;12.354;2023-06-10T09:50:33;3.42;;;3.13;;
38909;SDS011;24676;51.360;12.354;2023-06-10T09:53:18;5.35;;;3.70;;
38909;SDS011;24676;51.360;12.354;2023-06-10T09:56:04;5.55;;;3.78;;
38909;SDS011;24676;51.360;12.354;2023-06-10T09:58:49;3.78;;;3.47;;
38909;SDS011;24676;51.360;12.354;2023-06-10T10:01:36;5.75;;;3.63;;
38909;SDS011;24676;51.360;12.354;2023-06-10T10:04:24;7.60;;;3.88;;
38909;SDS011;24676;51.360;12.354;2023-06-10T10:07:09;4.28;;;3.25;;
38909;SDS011;24676;51.360;12.354;2023-06-10T10:09:54;5.03;;;3.88;;
38909;SDS011;24676;51.360;12.354;2023-06-10T10:12:38;4.05;;;3.42;;
38909;SDS011;24676;51.360;12.354;2023-06-10T10:15:25;6.95;;;3.53;;
38909;SDS011;24676;51.360;12.354;2023-06-10T10:18:14;7.43;;;3.65;;
38909;SDS011;24676;51.360;12.354;2023-06-10T10:21:01;4.72;;;3.55;;
38909;SDS011;24676;51.360;12.354;2023-06-10T10:23:57;5.97;;;3.78;;
38909;SDS011;24676;51.360;12.354;2023-06-10T10:26:59;5.15;;;3.30;;
38909;SDS011;24676;51.360;12.354;2023-06-10T10:29:50;4.40;;;3.95;;
38909;SDS011;24676;51.360;12.354;2023-06-10T10:32:42;8.88;;;3.70;;
38909;SDS011;24676;51.360;12.354;2023-06-10T10:35:34;3.80;;;3.53;;
38909;SDS011;24676;51.360;12.354;2023-06-10T10:38:20;4.22;;;3.55;;
38909;SDS011;24676;51.360;12.354;2023-06-10T10:41:05;6.30;;;3.55;;
38909;SDS011;24676;51.360;12.354;2023-06-10T10:43:50;8.05;;;3.83;;
38909;SDS011;24676;51.360;12.354;2023-06-10T10:46:42;4.63;;;3.38;;
38909;SDS011;24676;51.360;12.354;2023-06-10T10:49:28;4.63;;;3.15;;
38909;SDS011;24676;51.360;12.354;2023-06-10T10:52:14;7.45;;;3.75;;
38909;SDS011;24676;51.360;12.354;2023-06-10T10:54:58;5.15;;;3.85;;
38909;SDS011;24676;51.360;12.354;2023-06-10T10:57:42;3.67;;;3.38;;
38909;SDS011;24676;51.360;12.354;2023-06-10T11:00:27;3.40;;;3.05;;
38909;SDS011;24676;51.360;12.354;2023-06-10T11:03:16;6.13;;;3.65;;
38909;SDS011;24676;51.360;12.354;2023-06-10T11:06:00;8.07;;;3.47;;
38909;SDS011;24676;51.360;12.354;2023-06-10T11:08:56;4.47;;;3.80;;
38909;SDS011;24676;51.360;12.354;2023-06-10T11:11:49;4.30;;;3.63;;
38909;SDS011;24676;51.360;12.354;2023-06-10T11:14:33;3.78;;;3.33;;
38909;SDS011;24676;51.360;12.354;2023-06-10T11:17:18;4.43;;;4.03;;
38909;SDS011;24676;51.360;12.354;2023-06-10T11:20:04;4.55;;;4.05;;
38909;SDS011;24676;51.360;12.354;2023-06-10T11:22:58;4.82;;;3.83;;
38909;SDS011;24676;51.360;12.354;2023-06-10T11:25:44;3.50;;;3.05;;
38909;SDS011;24676;51.360;12.354;2023-06-10T11:28:30;3.70;;;3.28;;
38909;SDS011;24676;51.360;12.354;2023-06-10T11:34:06;5.15;;;4.38;;
38909;SDS011;24676;51.360;12.354;2023-06-10T11:36:51;7.05;;;4.30;;
38909;SDS011;24676;51.360;12.354;2023-06-10T11:39:35;4.38;;;3.97;;
38909;SDS011;24676;51.360;12.354;2023-06-10T11:42:21;4.78;;;3.83;;
38909;SDS011;24676;51.360;12.354;2023-06-10T11:45:06;7.38;;;4.13;;
38909;SDS011;24676;51.360;12.354;2023-06-10T11:48:01;5.05;;;4.45;;
38909;SDS011;24676;51.360;12.354;2023-06-10T11:50:45;8.55;;;4.03;;
38909;SDS011;24676;51.360;12.354;2023-06-10T11:53:29;3.33;;;3.03;;
38909;SDS011;24676;51.360;12.354;2023-06-10T11:56:13;5.35;;;3.83;;
38909;SDS011;24676;51.360;12.354;2023-06-10T11:58:58;3.80;;;3.50;;
38909;SDS011;24676;51.360;12.354;2023-06-10T12:01:47;3.80;;;3.50;;
38909;SDS011;24676;51.360;12.354;2023-06-10T12:04:31;6.38;;;2.88;;
38909;SDS011;24676;51.360;12.354;2023-06-10T12:07:19;3.90;;;3.03;;
38909;SDS011;24676;51.360;12.354;2023-06-10T12:10:05;3.22;;;2.92;;
38909;SDS011;24676;51.360;12.354;2023-06-10T12:12:49;4.47;;;3.78;;
38909;SDS011;24676;51.360;12.354;2023-06-10T12:15:33;5.35;;;3.35;;
38909;SDS011;24676;51.360;12.354;2023-06-10T12:21:20;3.63;;;3.33;;
38909;SDS011;24676;51.360;12.354;2023-06-10T12:24:08;12.38;;;4.18;;
38909;SDS011;24676;51.360;12.354;2023-06-10T12:26:54;3.60;;;3.28;;
38909;SDS011;24676;51.360;12.354;2023-06-10T12:29:39;4.97;;;3.45;;
38909;SDS011;24676;51.360;12.354;2023-06-10T12:32:44;4.25;;;3.17;;
38909;SDS011;24676;51.360;12.354;2023-06-10T12:35:30;3.42;;;3.13;;
38909;SDS011;24676;51.360;12.354;2023-06-10T12:38:14;3.25;;;2.67;;
38909;SDS011;24676;51.360;12.354;2023-06-10T12:41:05;4.57;;;2.78;;
38909;SDS011;24676;51.360;12.354;2023-06-10T12:43:49;3.65;;;3.00;;
38909;SDS011;24676;51.360;12.354;2023-06-10T12:46:36;3.17;;;2.95;;
38909;SDS011;24676;51.360;12.354;2023-06-10T12:49:20;3.00;;;2.70;;
38909;SDS011;24676;51.360;12.354;2023-06-10T12:52:05;3.33;;;2.80;;
38909;SDS011;24676;51.360;12.354;2023-06-10T12:54:50;4.47;;;3.65;;
38909;SDS011;24676;51.360;12.354;2023-06-10T12:57:35;9.18;;;5.00;;
38909;SDS011;24676;51.360;12.354;2023-06-10T13:00:19;3.70;;;2.83;;
38909;SDS011;24676;51.360;12.354;2023-06-10T13:03:04;4.03;;;2.97;;
38909;SDS011;24676;51.360;12.354;2023-06-10T13:05:51;3.78;;;3.38;;
38909;SDS011;24676;51.360;12.354;2023-06-10T13:08:35;3.80;;;2.78;;
38909;SDS011;24676;51.360;12.354;2023-06-10T13:11:19;5.03;;;3.95;;
38909;SDS011;24676;51.360;12.354;2023-06-10T13:14:04;8.73;;;5.22;;
38909;SDS011;24676;51.360;12.354;2023-06-10T13:16:50;5.18;;;3.85;;
38909;SDS011;24676;51.360;12.354;2023-06-10T13:19:34;6.40;;;4.45;;
38909;SDS011;24676;51.360;12.354;2023-06-10T13:22:18;6.38;;;5.07;;
38909;SDS011;24676;51.360;12.354;2023-06-10T13:25:04;5.07;;;4.03;;
38909;SDS011;24676;51.360;12.354;2023-06-10T13:27:50;7.00;;;4.43;;
38909;SDS011;24676;51.360;12.354;2023-06-10T13:30:34;7.32;;;5.20;;
38909;SDS011;24676;51.360;12.354;2023-06-10T13:33:18;6.38;;;4.63;;
38909;SDS011;24676;51.360;12.354;2023-06-10T13:36:02;6.53;;;3.85;;
38909;SDS011;24676;51.360;12.354;2023-06-10T13:38:47;4.57;;;3.08;;
38909;SDS011;24676;51.360;12.354;2023-06-10T13:41:32;4.13;;;3.28;;
38909;SDS011;24676;51.360;12.354;2023-06-10T13:44:16;2.78;;;2.55;;
38909;SDS011;24676;51.360;12.354;2023-06-10T13:47:00;3.58;;;2.78;;
38909;SDS011;24676;51.360;12.354;2023-06-10T13:49:44;3.78;;;2.40;;
38909;SDS011;24676;51.360;12.354;2023-06-10T13:52:29;2.53;;;2.25;;
38909;SDS011;24676;51.360;12.354;2023-06-10T13:55:13;3.05;;;1.90;;
38909;SDS011;24676;51.360;12.354;2023-06-10T13:57:57;2.30;;;1.65;;
38909;SDS011;24676;51.360;12.354;2023-06-10T14:00:42;2.72;;;2.53;;
38909;SDS011;24676;51.360;12.354;2023-06-10T14:03:26;2.28;;;1.95;;
38909;SDS011;24676;51.360;12.354;2023-06-10T14:06:10;2.05;;;1.92;;
38909;SDS011;24676;51.360;12.354;2023-06-10T14:08:56;2.05;;;1.88;;
38909;SDS011;24676;51.360;12.354;2023-06-10T14:11:41;1.90;;;1.80;;
38909;SDS011;24676;51.360;12.354;2023-06-10T14:14:25;1.30;;;1.20;;
38909;SDS011;24676;51.360;12.354;2023-06-10T14:17:10;3.78;;;1.85;;
38909;SDS011;24676;51.360;12.354;2023-06-10T14:19:54;3.35;;;1.90;;
38909;SDS011;24676;51.360;12.354;2023-06-10T14:22:42;1.50;;;1.40;;
38909;SDS011;24676;51.360;12.354;2023-06-10T14:25:26;3.50;;;2.00;;
38909;SDS011;24676;51.360;12.354;2023-06-10T14:28:10;1.98;;;1.83;;
38909;SDS011;24676;51.360;12.354;2023-06-10T14:30:55;1.40;;;1.23;;
38909;SDS011;24676;51.360;12.354;2023-06-10T14:33:41;2.28;;;1.83;;
38909;SDS011;24676;51.360;12.354;2023-06-10T14:36:27;2.25;;;1.75;;
38909;SDS011;24676;51.360;12.354;2023-06-10T14:39:11;1.67;;;1.58;;
38909;SDS011;24676;51.360;12.354;2023-06-10T14:41:55;1.73;;;1.63;;
38909;SDS011;24676;51.360;12.354;2023-06-10T14:44:40;1.88;;;1.75;;
38909;SDS011;24676;51.360;12.354;2023-06-10T14:47:24;2.80;;;2.13;;
38909;SDS011;24676;51.360;12.354;2023-06-10T14:50:09;6.15;;;3.20;;
38909;SDS011;24676;51.360;12.354;2023-06-10T14:52:53;5.07;;;2.85;;
38909;SDS011;24676;51.360;12.354;2023-06-10T14:55:37;4.00;;;3.28;;
38909;SDS011;24676;51.360;12.354;2023-06-10T14:58:21;3.70;;;3.00;;
38909;SDS011;24676;51.360;12.354;2023-06-10T15:01:06;5.57;;;2.75;;
38909;SDS011;24676;51.360;12.354;2023-06-10T15:03:50;4.75;;;3.47;;
38909;SDS011;24676;51.360;12.354;2023-06-10T15:06:34;5.68;;;4.30;;
38909;SDS011;24676;51.360;12.354;2023-06-10T15:09:18;5.53;;;3.75;;
38909;SDS011;24676;51.360;12.354;2023-06-10T15:12:03;4.13;;;2.80;;
38909;SDS011;24676;51.360;12.354;2023-06-10T15:14:49;4.85;;;3.40;;
38909;SDS011;24676;51.360;12.354;2023-06-10T15:17:33;5.63;;;3.35;;
38909;SDS011;24676;51.360;12.354;2023-06-10T15:20:17;5.22;;;3.92;;
38909;SDS011;24676;51.360;12.354;2023-06-10T15:23:02;4.85;;;4.38;;
38909;SDS011;24676;51.360;12.354;2023-06-10T15:25:46;7.40;;;3.67;;
38909;SDS011;24676;51.360;12.354;2023-06-10T15:28:30;3.55;;;3.05;;
38909;SDS011;24676;51.360;12.354;2023-06-10T15:31:17;4.32;;;3.50;;
38909;SDS011;24676;51.360;12.354;2023-06-10T15:34:02;4.72;;;3.80;;
38909;SDS011;24676;51.360;12.354;2023-06-10T15:36:47;5.28;;;3.85;;
38909;SDS011;24676;51.360;12.354;2023-06-10T15:39:32;7.63;;;3.97;;
38909;SDS011;24676;51.360;12.354;2023-06-10T15:42:16;4.80;;;3.63;;
38909;SDS011;24676;51.360;12.354;2023-06-10T15:45:01;5.03;;;4.20;;
38909;SDS011;24676;51.360;12.354;2023-06-10T15:47:45;3.85;;;3.50;;
38909;SDS011;24676;51.360;12.354;2023-06-10T15:50:30;6.97;;;4.07;;
38909;SDS011;24676;51.360;12.354;2023-06-10T15:53:15;4.25;;;3.70;;
38909;SDS011;24676;51.360;12.354;2023-06-10T15:55:59;5.47;;;4.05;;
38909;SDS011;24676;51.360;12.354;2023-06-10T15:58:44;6.50;;;3.72;;
38909;SDS011;24676;51.360;12.354;2023-06-10T16:01:29;4.40;;;3.83;;
38909;SDS011;24676;51.360;12.354;2023-06-10T16:04:13;5.85;;;3.30;;
38909;SDS011;24676;51.360;12.354;2023-06-10T16:06:58;5.28;;;3.50;;
38909;SDS011;24676;51.360;12.354;2023-06-10T16:09:42;6.10;;;3.38;;
38909;SDS011;24676;51.360;12.354;2023-06-10T16:12:27;4.03;;;3.33;;
38909;SDS011;24676;51.360;12.354;2023-06-10T16:15:11;3.95;;;3.55;;
38909;SDS011;24676;51.360;12.354;2023-06-10T16:17:55;6.95;;;4.78;;
38909;SDS011;24676;51.360;12.354;2023-06-10T16:20:42;3.75;;;3.35;;
38909;SDS011;24676;51.360;12.354;2023-06-10T16:23:25;4.70;;;4.07;;
38909;SDS011;24676;51.360;12.354;2023-06-10T16:26:10;5.78;;;3.92;;
38909;SDS011;24676;51.360;12.354;2023-06-10T16:28:55;4.13;;;3.40;;
38909;SDS011;24676;51.360;12.354;2023-06-10T16:31:39;4.95;;;3.83;;